This is the latest recevied weather packets stored in our database for station/object KB0BS-13. If no packets are shown the sender has not sent any weather packets the latest 10 day(s).
| Time | Temp. | Humidity | Pressure | Rain* | Wind** | Luminosity | Snow |
|---|---|---|---|---|---|---|---|
| 1777838239 | 12.78° C | 65% | 1004.1 hPa | 0 mm | - | 523 W/m² | - |
| 1777837936 | 11.67° C | 69% | 1004.4 hPa | 0 mm | - | 567 W/m² | - |
| 1777836722 | 10.56° C | 74% | 1004.8 hPa | 0 mm | - | 147 W/m² | - |
| 1777835507 | 10° C | 80% | 1005.2 hPa | 0 mm | - | 330 W/m² | - |
| 1777834597 | 10° C | 78% | 1005.5 hPa | 0 mm | - | 282 W/m² | - |
| 1777834292 | 10° C | 78% | 1005.4 hPa | 0 mm | - | 489 W/m² | - |
| 1777833381 | 9.44° C | 78% | 1005.7 hPa | 0 mm | - | 267 W/m² | - |
| 1777833078 | 9.44° C | 79% | 1005.6 hPa | 0 mm | - | 277 W/m² | - |
| 1777832474 | 9.44° C | 80% | 1005.7 hPa | 0 mm | - | 316 W/m² | - |
| 1777832171 | 9.44° C | 78% | 1005.8 hPa | 0 mm | - | 334 W/m² | - |
| 1777831868 | 9.44° C | 79% | 1005.8 hPa | 0 mm | - | 626 W/m² | - |
| 1777831568 | 10.56° C | 75% | 1005.9 hPa | 0 mm | - | 322 W/m² | - |
| 1777830959 | 10° C | 78% | 1005.7 hPa | 0 mm | - | 820 W/m² | - |
| 1777830050 | 10° C | 77% | 1006.3 hPa | 0 mm | - | 749 W/m² | - |
| 1777829745 | 9.44° C | 79% | 1006.4 hPa | 0 mm | - | 691 W/m² | - |
| 1777829139 | 9.44° C | 79% | 1006.4 hPa | 0 mm | - | 689 W/m² | - |
| 1777828836 | 8.89° C | 78% | 1006.4 hPa | 0 mm | - | 687 W/m² | - |
| 1777827017 | 8.89° C | 84% | 1007 hPa | 0 mm | - | 462 W/m² | - |
| 1777825200 | 6.11° C | 95% | 1007.3 hPa | 0 mm | - | 533 W/m² | - |
| 1777821564 | 3.33° C | 96% | 1007.7 hPa | 0 mm | - | 141 W/m² | - |
| 1777818838 | 2.22° C | 98% | 1008.1 hPa | 1.27 mm | - | 50 W/m² | - |
| 1777818534 | 2.22° C | 98% | 1008.1 hPa | 1.78 mm | - | 39 W/m² | - |
| 1777817927 | 2.22° C | 97% | 1008.3 hPa | 1.27 mm | - | 34 W/m² | - |
| 1777817625 | 2.22° C | 97% | 1008.4 hPa | 0 mm | - | 25 W/m² | - |
| 1777817019 | 2.22° C | 97% | 1008.5 hPa | 0 mm | - | 35 W/m² | - |
* Rain latest hour (hover to see other rain measurements)
** Current wind speed in m/s (hover to see current wind gust speed)